createdAt,value
2018-05-10T00:00:47.834Z,19.60
2018-05-10T00:03:18.369Z,19.50
2018-05-10T00:05:48.132Z,19.40
2018-05-10T00:08:17.935Z,19.40
2018-05-10T00:10:47.734Z,19.40
2018-05-10T00:13:17.509Z,19.30
2018-05-10T00:15:47.295Z,19.30
2018-05-10T00:18:17.065Z,19.30
2018-05-10T00:20:46.832Z,19.30
2018-05-10T00:23:16.614Z,19.20
2018-05-10T00:25:46.405Z,19.10
2018-05-10T00:28:16.179Z,19.10
2018-05-10T00:30:45.952Z,19.10
2018-05-10T00:33:15.741Z,19.00
2018-05-10T00:35:45.508Z,19.00
2018-05-10T00:38:15.286Z,19.00
2018-05-10T00:40:45.065Z,18.90
2018-05-10T00:43:14.828Z,18.90
2018-05-10T00:45:44.605Z,18.80
2018-05-10T00:48:14.373Z,18.80
2018-05-10T00:50:44.151Z,18.70
2018-05-10T00:53:15.340Z,18.60
2018-05-10T00:55:45.258Z,18.60
2018-05-10T00:58:15.029Z,18.60
2018-05-10T01:00:44.813Z,18.50
2018-05-10T01:03:14.586Z,18.50
2018-05-10T01:05:44.360Z,18.50
2018-05-10T01:08:14.852Z,18.40
2018-05-10T01:10:45.654Z,18.40
2018-05-10T01:13:15.456Z,18.40
2018-05-10T01:15:45.221Z,18.40
2018-05-10T01:18:15.752Z,18.40
2018-05-10T01:20:45.519Z,18.40
2018-05-10T01:23:15.286Z,18.40
2018-05-10T01:25:45.052Z,18.40
2018-05-10T01:28:14.831Z,18.40
2018-05-10T01:30:44.596Z,18.30
2018-05-10T01:33:15.124Z,18.30
2018-05-10T01:36:03.414Z,18.20
2018-05-10T01:38:33.785Z,18.20
2018-05-10T01:41:03.700Z,18.20
2018-05-10T01:43:33.478Z,18.10
2018-05-10T01:46:03.244Z,18.10
2018-05-10T01:48:33.013Z,18.10
2018-05-10T01:51:02.783Z,18.10
2018-05-10T01:53:32.594Z,18.10
2018-05-10T01:56:02.351Z,18.00
2018-05-10T01:58:32.880Z,18.00
2018-05-10T02:01:02.673Z,18.00
2018-05-10T02:03:32.440Z,18.00
2018-05-10T02:06:02.212Z,17.90
2018-05-10T02:08:32.752Z,17.90
2018-05-10T02:11:03.293Z,17.90
2018-05-10T02:13:33.069Z,17.90
2018-05-10T02:16:02.835Z,17.90
2018-05-10T02:18:32.615Z,17.90
2018-05-10T02:21:02.384Z,17.80
2018-05-10T02:23:32.169Z,17.80
2018-05-10T02:26:01.944Z,17.80
2018-05-10T02:28:32.488Z,17.70
2018-05-10T02:31:02.266Z,17.70
2018-05-10T02:33:32.809Z,17.70
2018-05-10T02:36:03.367Z,17.60
2018-05-10T02:38:33.132Z,17.60
2018-05-10T02:41:03.678Z,17.60
2018-05-10T02:43:33.455Z,17.50
2018-05-10T02:46:03.226Z,17.50
2018-05-10T02:48:32.988Z,17.50
2018-05-10T02:51:02.749Z,17.50
2018-05-10T02:53:32.512Z,17.50
2018-05-10T02:56:03.052Z,17.40
2018-05-10T02:58:33.584Z,17.40
2018-05-10T03:01:03.359Z,17.40
2018-05-10T03:03:33.129Z,17.40
2018-05-10T03:06:02.892Z,17.40
2018-05-10T03:08:33.433Z,17.40
2018-05-10T03:11:03.980Z,17.40
2018-05-10T03:13:33.828Z,17.30
2018-05-10T03:16:03.593Z,17.30
2018-05-10T03:18:33.358Z,17.30
2018-05-10T03:21:03.128Z,17.30
2018-05-10T03:23:32.904Z,17.20
2018-05-10T03:26:02.685Z,17.20
2018-05-10T03:28:32.448Z,17.20
2018-05-10T03:31:02.234Z,17.20
2018-05-10T03:33:32.771Z,17.20
2018-05-10T03:36:03.310Z,17.20
2018-05-10T03:38:33.078Z,17.20
2018-05-10T03:41:02.875Z,17.20
2018-05-10T03:43:33.404Z,17.20
2018-05-10T03:46:03.186Z,17.20
2018-05-10T03:48:32.965Z,17.20
2018-05-10T03:51:02.771Z,17.10
2018-05-10T03:53:33.264Z,17.10
2018-05-10T03:56:03.031Z,17.10
2018-05-10T03:58:32.809Z,17.10
2018-05-10T04:01:03.341Z,17.10
2018-05-10T04:06:57.692Z,17.00
2018-05-10T04:09:45.206Z,17.00
2018-05-10T04:12:14.968Z,17.00
2018-05-10T04:14:44.737Z,17.00
2018-05-10T04:17:14.495Z,17.00
2018-05-10T04:19:45.029Z,17.00
2018-05-10T04:22:15.568Z,17.00
2018-05-10T04:24:45.337Z,16.90
2018-05-10T04:27:15.114Z,16.90
2018-05-10T04:29:44.875Z,16.90
2018-05-10T04:32:15.412Z,16.90
2018-05-10T04:34:45.958Z,17.00
2018-05-10T04:37:15.796Z,16.90
2018-05-10T04:39:45.480Z,16.90
2018-05-10T04:42:15.283Z,17.00
2018-05-10T04:44:45.024Z,17.00
2018-05-10T04:47:14.792Z,17.00
2018-05-10T04:49:45.329Z,17.00
2018-05-10T04:52:15.092Z,17.00
2018-05-10T04:54:44.869Z,17.10
2018-05-10T04:57:14.634Z,17.10
2018-05-10T04:59:45.168Z,17.20
2018-05-10T05:02:15.705Z,17.30
2018-05-10T05:04:47.250Z,17.40
2018-05-10T05:07:16.941Z,17.40
2018-05-10T05:09:46.712Z,17.40
2018-05-10T05:12:16.479Z,17.50
2018-05-10T05:14:47.020Z,17.70
2018-05-10T05:17:16.800Z,17.70
2018-05-10T05:19:46.565Z,17.80
2018-05-10T05:22:16.336Z,17.90
2018-05-10T05:24:46.897Z,18.10
2018-05-10T05:27:16.673Z,18.10
2018-05-10T05:29:47.218Z,18.30
2018-05-10T05:32:16.989Z,18.20
2018-05-10T05:34:46.760Z,18.40
2018-05-10T05:37:16.614Z,18.40
2018-05-10T05:39:47.098Z,18.60
2018-05-10T05:42:16.873Z,18.60
2018-05-10T05:44:47.409Z,18.70
2018-05-10T05:47:17.191Z,18.80
2018-05-10T05:49:46.961Z,18.80
2018-05-10T05:52:16.729Z,18.80
2018-05-10T05:54:47.277Z,18.90
2018-05-10T05:57:17.052Z,18.90
2018-05-10T05:59:47.620Z,19.00
2018-05-10T06:02:17.397Z,19.00
2018-05-10T06:04:47.936Z,19.10
2018-05-10T06:07:18.479Z,19.30
2018-05-10T06:09:48.256Z,19.30
2018-05-10T06:12:18.811Z,19.60
2018-05-10T06:14:48.586Z,19.60
2018-05-10T06:17:18.352Z,19.70
2018-05-10T06:19:48.124Z,19.70
2018-05-10T06:22:18.672Z,19.80
2018-05-10T06:24:48.488Z,19.80
2018-05-10T06:27:18.196Z,19.90
2018-05-10T06:29:47.968Z,20.10
2018-05-10T06:32:18.509Z,20.20
2018-05-10T06:34:49.061Z,20.30
2018-05-10T06:37:18.841Z,20.30
2018-05-10T06:39:49.389Z,20.50
2018-05-10T06:42:19.157Z,20.50
2018-05-10T06:44:48.932Z,20.60
2018-05-10T06:47:18.716Z,20.60
2018-05-10T06:49:48.517Z,20.70
2018-05-10T06:52:19.059Z,20.80
2018-05-10T06:54:48.858Z,20.90
2018-05-10T06:57:19.417Z,21.10
2018-05-10T06:59:49.191Z,21.00
2018-05-10T07:02:19.744Z,21.30
2018-05-10T07:04:49.524Z,21.30
2018-05-10T07:07:20.060Z,21.50
2018-05-10T07:09:50.071Z,21.50
2018-05-10T07:12:19.685Z,21.60
2018-05-10T07:14:49.457Z,21.60
2018-05-10T07:17:19.245Z,21.70
2018-05-10T07:19:49.012Z,21.70
2018-05-10T07:22:19.560Z,21.80
2018-05-10T07:24:49.340Z,21.90
2018-05-10T07:27:19.896Z,22.00
2018-05-10T07:29:49.685Z,21.90
2018-05-10T07:32:20.254Z,21.90
2018-05-10T07:34:50.024Z,21.90
2018-05-10T07:37:20.564Z,21.90
2018-05-10T07:39:50.351Z,21.90
2018-05-10T07:42:20.953Z,21.80
2018-05-10T07:44:50.725Z,21.80
2018-05-10T07:47:20.515Z,21.80
2018-05-10T07:49:50.279Z,21.90
2018-05-10T07:52:20.057Z,22.00
2018-05-10T07:54:49.935Z,22.20
2018-05-10T07:57:20.483Z,22.30
2018-05-10T07:59:50.260Z,22.40
2018-05-10T08:02:20.133Z,22.40
2018-05-10T08:04:49.833Z,22.40
2018-05-10T08:07:19.598Z,22.40
2018-05-10T08:09:50.174Z,22.40
2018-05-10T08:12:19.953Z,22.50
2018-05-10T08:14:49.735Z,22.50
2018-05-10T08:17:19.574Z,22.50
2018-05-10T08:19:49.296Z,22.60
2018-05-10T08:22:19.078Z,22.70
2018-05-10T08:24:49.616Z,22.80
2018-05-10T08:27:20.163Z,22.70
2018-05-10T08:29:50.709Z,22.70
2018-05-10T08:32:20.487Z,22.70
2018-05-10T08:34:50.316Z,22.70
2018-05-10T08:37:20.090Z,22.70
2018-05-10T08:39:50.648Z,22.70
2018-05-10T08:42:20.426Z,22.70
2018-05-10T08:44:50.203Z,22.70
2018-05-10T08:47:19.981Z,22.70
2018-05-10T08:49:49.762Z,22.80
2018-05-10T08:52:20.304Z,22.90
2018-05-10T08:54:50.112Z,22.80
2018-05-10T08:57:20.659Z,22.90
2018-05-10T08:59:50.502Z,22.90
2018-05-10T09:02:21.624Z,23.00
2018-05-10T09:04:51.573Z,23.00
2018-05-10T09:07:21.407Z,23.10
2018-05-10T09:09:51.125Z,23.30
2018-05-10T09:12:21.661Z,23.60
2018-05-10T09:14:51.433Z,23.50
2018-05-10T09:17:21.210Z,23.70
2018-05-10T09:19:52.472Z,23.80
2018-05-10T09:22:22.423Z,23.90
2018-05-10T09:24:53.056Z,24.00
2018-05-10T09:27:23.059Z,24.20
2018-05-10T09:29:54.182Z,24.60
2018-05-10T09:32:24.670Z,24.60
2018-05-10T09:34:54.445Z,24.80
2018-05-10T09:37:25.020Z,25.20
2018-05-10T09:39:54.765Z,25.20
2018-05-10T09:42:24.554Z,25.40
2018-05-10T09:44:54.332Z,25.60
2018-05-10T09:47:24.097Z,25.80
2018-05-10T09:49:53.880Z,26.00
2018-05-10T09:52:23.648Z,26.10
2018-05-10T09:54:53.421Z,26.20
2018-05-10T09:57:23.194Z,26.30
2018-05-10T09:59:53.058Z,26.40
2018-05-10T10:02:23.176Z,26.50
2018-05-10T10:04:53.721Z,26.60
2018-05-10T10:07:23.526Z,26.60
2018-05-10T10:09:54.057Z,26.80
2018-05-10T10:12:24.627Z,27.00
2018-05-10T10:14:54.390Z,27.00
2018-05-10T10:17:24.160Z,27.20
2018-05-10T10:19:53.925Z,27.30
2018-05-10T10:22:23.693Z,27.40
2018-05-10T10:24:53.467Z,27.40
2018-05-10T10:27:23.275Z,27.50
2018-05-10T10:29:53.856Z,27.70
2018-05-10T10:32:23.588Z,27.70
2018-05-10T10:34:53.373Z,27.80
2018-05-10T10:37:23.916Z,27.90
2018-05-10T10:39:54.457Z,27.80
2018-05-10T10:42:24.230Z,27.80
2018-05-10T10:44:54.015Z,27.90
2018-05-10T10:47:23.776Z,27.90
2018-05-10T10:49:53.570Z,28.00
2018-05-10T10:52:23.328Z,28.10
2018-05-10T10:54:53.109Z,28.20
2018-05-10T10:57:22.882Z,28.20
2018-05-10T10:59:52.743Z,28.40
2018-05-10T11:02:22.429Z,28.50
2018-05-10T11:04:52.967Z,28.60
2018-05-10T11:07:22.737Z,28.60
2018-05-10T11:09:52.521Z,28.70
2018-05-10T11:12:22.292Z,28.80
2018-05-10T11:14:52.832Z,29.10
2018-05-10T11:17:22.616Z,29.10
2018-05-10T11:19:53.157Z,29.40
2018-05-10T11:22:23.686Z,29.60
2018-05-10T11:24:53.461Z,29.50
2018-05-10T11:27:23.336Z,29.70
2018-05-10T11:29:53.025Z,29.50
2018-05-10T11:32:22.795Z,29.10
2018-05-10T11:34:52.582Z,28.70
2018-05-10T11:37:22.360Z,28.30
2018-05-10T11:39:52.145Z,28.00
2018-05-10T11:42:22.688Z,27.60
2018-05-10T11:44:52.472Z,27.60
2018-05-10T11:47:22.242Z,27.60
2018-05-10T11:49:52.024Z,27.50
2018-05-10T11:52:21.795Z,27.40
2018-05-10T11:54:52.384Z,27.10
2018-05-10T11:57:22.153Z,27.00
2018-05-10T11:59:52.701Z,26.70
2018-05-10T12:02:22.476Z,26.70
2018-05-10T12:04:53.045Z,26.40
2018-05-10T12:07:23.591Z,26.40
2018-05-10T12:09:53.368Z,26.40
2018-05-10T12:12:23.140Z,26.70
2018-05-10T12:14:52.933Z,26.90
2018-05-10T12:17:22.713Z,26.90
2018-05-10T12:19:52.488Z,26.80
2018-05-10T12:22:23.026Z,26.60
2018-05-10T12:24:53.584Z,26.50
2018-05-10T12:27:23.352Z,26.50
2018-05-10T12:29:53.911Z,26.30
2018-05-10T12:32:23.693Z,26.20
2018-05-10T12:34:54.252Z,26.20
2018-05-10T12:37:24.021Z,26.20
2018-05-10T12:39:53.787Z,26.40
2018-05-10T12:42:23.552Z,26.50
2018-05-10T12:44:54.097Z,26.20
2018-05-10T12:47:23.861Z,26.20
2018-05-10T12:49:53.637Z,26.00
2018-05-10T12:52:23.400Z,25.90
2018-05-10T12:54:53.164Z,25.70
2018-05-10T12:57:22.946Z,25.50
2018-05-10T12:59:52.718Z,25.30
2018-05-10T13:02:22.493Z,25.00
2018-05-10T13:04:52.264Z,24.80
2018-05-10T13:07:22.800Z,24.40
2018-05-10T13:09:52.585Z,24.40
2018-05-10T13:12:22.385Z,24.10
2018-05-10T13:14:52.161Z,23.80
2018-05-10T13:17:21.942Z,23.60
2018-05-10T13:19:52.480Z,23.30
2018-05-10T13:22:22.280Z,23.30
2018-05-10T13:24:52.081Z,23.00
2018-05-10T13:27:22.703Z,22.30
2018-05-10T13:29:52.406Z,22.20
2018-05-10T13:32:22.955Z,21.60
2018-05-10T13:35:19.789Z,21.60
2018-05-10T13:37:50.339Z,21.10
2018-05-10T13:40:20.121Z,21.10
2018-05-10T13:42:50.659Z,20.60
2018-05-10T13:45:21.201Z,20.50
2018-05-10T13:47:50.988Z,20.40
2018-05-10T13:50:21.531Z,19.90
2018-05-10T13:52:52.082Z,19.70
2018-05-10T13:55:21.859Z,19.70
2018-05-10T13:57:52.393Z,19.70
2018-05-10T14:00:22.193Z,19.70
2018-05-10T14:02:52.744Z,19.60
2018-05-10T14:05:22.533Z,19.60
2018-05-10T14:07:53.078Z,19.30
2018-05-10T14:10:22.882Z,19.20
2018-05-10T14:12:52.638Z,19.10
2018-05-10T14:15:22.408Z,19.00
2018-05-10T14:17:52.196Z,18.90
2018-05-10T14:20:22.758Z,18.70
2018-05-10T14:22:52.541Z,18.60
2018-05-10T14:25:23.093Z,18.50
2018-05-10T14:27:52.874Z,18.50
2018-05-10T14:30:23.505Z,18.30
2018-05-10T14:32:53.226Z,18.30
2018-05-10T14:35:22.985Z,18.30
2018-05-10T14:37:52.761Z,18.20
2018-05-10T14:40:22.552Z,18.20
2018-05-10T14:42:53.080Z,18.20
2018-05-10T14:45:22.855Z,18.20
2018-05-10T14:47:52.630Z,18.20
2018-05-10T14:50:22.404Z,18.20
2018-05-10T14:52:52.950Z,18.20
2018-05-10T14:55:22.733Z,18.20
2018-05-10T14:57:53.281Z,18.30
2018-05-10T15:00:23.062Z,18.30
2018-05-10T15:02:52.848Z,18.30
2018-05-10T15:05:22.622Z,18.20
2018-05-10T15:07:52.402Z,18.00
2018-05-10T15:10:22.967Z,17.70
2018-05-10T15:12:52.742Z,17.70
2018-05-10T15:15:23.293Z,17.60
2018-05-10T15:17:53.076Z,17.50
2018-05-10T15:20:23.615Z,17.40
2018-05-10T15:22:54.337Z,17.40
2018-05-10T15:25:24.281Z,17.40
2018-05-10T15:27:54.986Z,17.40
2018-05-10T15:30:24.887Z,17.40
2018-05-10T15:32:54.801Z,17.30
2018-05-10T15:35:30.511Z,17.30
2018-05-10T15:38:00.430Z,17.20
2018-05-10T15:40:30.355Z,17.10
2018-05-10T15:43:01.292Z,17.20
2018-05-10T15:45:31.977Z,17.20
2018-05-10T15:48:02.681Z,17.10
2018-05-10T15:50:32.588Z,17.10
2018-05-10T15:53:03.334Z,17.20
2018-05-10T15:55:33.246Z,17.20
2018-05-10T15:58:03.168Z,17.20
2018-05-10T16:00:33.823Z,17.10
2018-05-10T16:03:03.750Z,17.10
2018-05-10T16:05:33.694Z,17.10
2018-05-10T16:08:03.621Z,17.00
2018-05-10T16:10:33.536Z,17.10
2018-05-10T16:13:03.519Z,17.10
2018-05-10T16:15:37.245Z,17.30
2018-05-10T16:18:07.197Z,17.20
2018-05-10T16:20:37.120Z,17.20
2018-05-10T16:23:07.061Z,17.30
2018-05-10T16:25:36.980Z,17.30
2018-05-10T16:28:06.958Z,17.30
2018-05-10T16:30:36.844Z,17.20
2018-05-10T16:33:06.742Z,17.10
2018-05-10T16:35:36.672Z,17.10
2018-05-10T16:38:06.605Z,17.20
2018-05-10T16:40:37.300Z,17.30
2018-05-10T16:43:07.265Z,17.30
2018-05-10T16:45:37.176Z,17.40
2018-05-10T16:48:06.945Z,17.60
2018-05-10T16:50:37.480Z,18.30
2018-05-10T16:53:08.027Z,18.70
2018-05-10T16:55:37.811Z,18.70
2018-05-10T16:58:07.581Z,19.00
2018-05-10T17:00:37.348Z,19.20
2018-05-10T17:03:07.126Z,19.10
2018-05-10T17:05:36.892Z,19.00
2018-05-10T17:08:06.666Z,18.60
2018-05-10T17:10:37.197Z,18.10
2018-05-10T17:13:07.768Z,17.80
2018-05-10T17:15:38.277Z,17.40
2018-05-10T17:18:08.199Z,17.40
2018-05-10T17:20:37.952Z,17.30
2018-05-10T17:23:13.060Z,17.20
2018-05-10T17:25:42.863Z,17.10
2018-05-10T17:28:12.704Z,17.00
2018-05-10T17:30:42.520Z,17.00
2018-05-10T17:33:12.245Z,17.00
2018-05-10T17:35:42.012Z,16.90
2018-05-10T17:38:11.794Z,16.70
2018-05-10T17:40:42.978Z,16.50
2018-05-10T17:43:12.960Z,16.40
2018-05-10T17:45:42.739Z,16.40
2018-05-10T17:51:16.281Z,16.20
2018-05-10T17:53:46.057Z,16.10
2018-05-10T17:56:16.605Z,15.90
2018-05-10T17:58:47.166Z,15.90
2018-05-10T18:01:16.936Z,15.90
2018-05-10T18:03:47.487Z,15.90
2018-05-10T18:06:17.256Z,15.80
2018-05-10T18:09:14.589Z,15.80
2018-05-10T18:11:44.420Z,15.80
2018-05-10T18:14:14.969Z,15.70
2018-05-10T18:16:44.740Z,15.70
2018-05-10T18:19:15.745Z,15.80
2018-05-10T18:21:47.567Z,15.80
2018-05-10T18:24:18.115Z,15.70
2018-05-10T18:26:47.885Z,15.70
2018-05-10T18:29:17.725Z,15.80
2018-05-10T18:31:47.472Z,15.90
2018-05-10T18:34:17.289Z,15.90
2018-05-10T18:36:47.073Z,15.80
2018-05-10T18:39:16.841Z,15.80
2018-05-10T18:41:46.622Z,15.70
2018-05-10T18:44:17.178Z,15.50
2018-05-10T18:46:46.941Z,15.50
2018-05-10T18:49:16.716Z,15.50
2018-05-10T18:51:47.245Z,15.40
2018-05-10T18:54:17.776Z,15.40
2018-05-10T18:56:48.311Z,15.40
2018-05-10T18:59:31.372Z,15.30
2018-05-10T19:02:01.144Z,15.30
2018-05-10T19:04:30.915Z,15.20
2018-05-10T19:07:03.756Z,15.10
2018-05-10T19:09:34.163Z,15.10
2018-05-10T19:12:04.581Z,15.00
2018-05-10T19:14:34.475Z,15.00
2018-05-10T19:17:04.242Z,15.00
2018-05-10T19:19:34.006Z,14.90
2018-05-10T19:22:04.545Z,14.90
2018-05-10T19:24:34.316Z,14.80
2018-05-10T19:27:04.093Z,14.80
2018-05-10T19:29:33.868Z,14.80
2018-05-10T19:32:05.654Z,14.80
2018-05-10T19:34:35.436Z,14.80
2018-05-10T19:37:05.397Z,14.70
2018-05-10T19:39:36.137Z,14.70
2018-05-10T19:42:05.896Z,14.70
2018-05-10T19:44:35.688Z,14.70
2018-05-10T19:47:07.176Z,14.70
2018-05-10T19:49:36.958Z,14.70
2018-05-10T19:52:06.729Z,14.70
2018-05-10T19:54:36.513Z,14.70
2018-05-10T19:57:06.295Z,14.70
2018-05-10T19:59:55.380Z,14.70
2018-05-10T20:02:25.141Z,14.70
2018-05-10T20:04:55.700Z,14.70
2018-05-10T20:07:25.476Z,14.70
2018-05-10T20:09:56.025Z,14.70
2018-05-10T20:12:25.841Z,14.70
2018-05-10T20:14:55.589Z,14.70
2018-05-10T20:17:25.407Z,14.60
2018-05-10T20:19:55.186Z,14.60
2018-05-10T20:22:25.092Z,14.60
2018-05-10T20:24:55.099Z,14.60
2018-05-10T20:27:25.612Z,14.50
2018-05-10T20:29:56.165Z,14.50
2018-05-10T20:32:25.993Z,14.50
2018-05-10T20:34:56.477Z,14.50
2018-05-10T20:37:26.244Z,14.50
2018-05-10T20:39:56.035Z,14.40
2018-05-10T20:42:25.816Z,14.40
2018-05-10T20:44:56.344Z,14.40
2018-05-10T20:47:26.121Z,14.40
2018-05-10T20:50:12.815Z,14.40
2018-05-10T20:52:42.587Z,14.40
2018-05-10T20:55:12.450Z,14.40
2018-05-10T20:57:43.110Z,14.30
2018-05-10T21:00:13.832Z,14.30
2018-05-10T21:02:44.174Z,14.30
2018-05-10T21:05:16.168Z,14.20
2018-05-10T21:07:46.623Z,14.20
2018-05-10T21:10:17.855Z,14.10
2018-05-10T21:12:48.311Z,14.10
2018-05-10T21:15:21.819Z,14.00
2018-05-10T21:17:52.196Z,14.00
2018-05-10T21:20:22.583Z,14.00
2018-05-10T21:23:00.826Z,14.00
2018-05-10T21:25:31.380Z,13.90
2018-05-10T21:28:01.629Z,13.90
2018-05-10T21:30:32.811Z,13.90
2018-05-10T21:33:03.326Z,13.90
2018-05-10T21:35:35.637Z,13.90
2018-05-10T21:38:06.082Z,13.90
2018-05-10T21:40:36.511Z,13.90
2018-05-10T21:43:06.849Z,13.90
2018-05-10T21:45:37.325Z,13.90
2018-05-10T21:48:08.782Z,13.90
2018-05-10T21:50:41.262Z,13.90
2018-05-10T21:53:11.417Z,13.80
2018-05-10T21:55:41.714Z,13.80
2018-05-10T21:58:11.749Z,13.90
2018-05-10T22:00:42.116Z,13.90
2018-05-10T22:03:15.406Z,13.90
2018-05-10T22:05:53.481Z,13.90
2018-05-10T22:08:27.699Z,13.90
2018-05-10T22:11:00.101Z,13.90
2018-05-10T22:13:31.183Z,13.90
2018-05-10T22:16:01.785Z,13.90
2018-05-10T22:18:33.679Z,13.90
2018-05-10T22:21:05.838Z,13.90
2018-05-10T22:23:36.403Z,13.90
2018-05-10T22:26:07.680Z,13.90
2018-05-10T22:28:38.971Z,13.90
2018-05-10T22:31:12.820Z,13.90
2018-05-10T22:33:44.827Z,13.80
2018-05-10T22:36:15.385Z,13.90
2018-05-10T22:38:46.132Z,13.90
2018-05-10T22:41:19.954Z,13.80
2018-05-10T22:43:51.381Z,13.80
2018-05-10T22:46:22.803Z,13.80
2018-05-10T22:48:54.671Z,13.80
2018-05-10T22:51:28.659Z,13.80
2018-05-10T22:53:59.100Z,13.80
2018-05-10T22:56:29.510Z,13.80
2018-05-10T22:59:03.134Z,13.80
2018-05-10T23:01:35.329Z,13.70
2018-05-10T23:04:05.920Z,13.80
2018-05-10T23:06:37.315Z,13.70
2018-05-10T23:09:09.231Z,13.70
2018-05-10T23:11:43.978Z,13.70
2018-05-10T23:14:14.549Z,13.60
2018-05-10T23:16:48.015Z,13.70
2018-05-10T23:19:20.060Z,13.70
2018-05-10T23:21:53.913Z,13.80
2018-05-10T23:24:25.306Z,13.80
2018-05-10T23:29:32.465Z,13.70
2018-05-10T23:32:04.021Z,13.70
2018-05-10T23:34:36.009Z,13.70
2018-05-10T23:37:06.508Z,13.70
2018-05-10T23:39:42.373Z,13.70
2018-05-10T23:42:12.766Z,13.70
2018-05-10T23:48:08.393Z,13.70
2018-05-10T23:50:39.462Z,13.70
2018-05-10T23:53:10.585Z,13.70
2018-05-10T23:55:43.638Z,13.70
2018-05-10T23:58:17.784Z,13.70
